sensor_id;sensor_type;location;lat;lon;timestamp;pressure;altitude;pressure_sealevel;temperature;humidity
75745;BME280;74462;51.366;-0.222;2023-12-04T00:00:41;100121.81;;;8.41;80.78
75745;BME280;74462;51.366;-0.222;2023-12-04T00:01:46;100116.34;;;8.41;80.76
75745;BME280;74462;51.366;-0.222;2023-12-04T00:02:49;100111.66;;;8.40;80.97
75745;BME280;74462;51.366;-0.222;2023-12-04T00:03:51;100116.17;;;8.39;81.04
75745;BME280;74462;51.366;-0.222;2023-12-04T00:04:54;100115.05;;;8.24;80.50
75745;BME280;74462;51.366;-0.222;2023-12-04T00:05:57;100108.65;;;8.24;80.76
75745;BME280;74462;51.366;-0.222;2023-12-04T00:06:59;100110.73;;;8.29;81.10
75745;BME280;74462;51.366;-0.222;2023-12-04T00:08:01;100111.02;;;8.26;81.29
75745;BME280;74462;51.366;-0.222;2023-12-04T00:09:04;100108.47;;;8.28;81.14
75745;BME280;74462;51.366;-0.222;2023-12-04T00:10:08;100106.84;;;8.24;80.95
75745;BME280;74462;51.366;-0.222;2023-12-04T00:11:11;100105.73;;;8.25;80.96
75745;BME280;74462;51.366;-0.222;2023-12-04T00:12:13;100098.66;;;8.23;80.50
75745;BME280;74462;51.366;-0.222;2023-12-04T00:13:15;100103.36;;;8.15;80.54
75745;BME280;74462;51.366;-0.222;2023-12-04T00:14:18;100096.39;;;8.18;80.86
75745;BME280;74462;51.366;-0.222;2023-12-04T00:15:21;100096.29;;;8.09;80.51
75745;BME280;74462;51.366;-0.222;2023-12-04T00:16:23;100091.48;;;8.17;80.58
75745;BME280;74462;51.366;-0.222;2023-12-04T00:17:25;100089.10;;;8.19;80.51
75745;BME280;74462;51.366;-0.222;2023-12-04T00:18:28;100086.90;;;8.13;80.58
75745;BME280;74462;51.366;-0.222;2023-12-04T00:19:30;100080.08;;;8.10;80.78
75745;BME280;74462;51.366;-0.222;2023-12-04T00:20:33;100077.64;;;8.05;80.46
75745;BME280;74462;51.366;-0.222;2023-12-04T00:21:35;100074.58;;;8.01;80.52
75745;BME280;74462;51.366;-0.222;2023-12-04T00:22:38;100077.25;;;8.01;80.67
75745;BME280;74462;51.366;-0.222;2023-12-04T00:23:40;100069.91;;;8.07;81.15
75745;BME280;74462;51.366;-0.222;2023-12-04T00:24:43;100068.46;;;8.10;81.26
75745;BME280;74462;51.366;-0.222;2023-12-04T00:25:45;100068.29;;;8.12;80.73
75745;BME280;74462;51.366;-0.222;2023-12-04T00:26:48;100065.63;;;8.14;80.62
75745;BME280;74462;51.366;-0.222;2023-12-04T00:27:50;100061.36;;;8.08;80.30
75745;BME280;74462;51.366;-0.222;2023-12-04T00:28:52;100061.91;;;8.08;80.48
75745;BME280;74462;51.366;-0.222;2023-12-04T00:29:55;100060.22;;;8.09;80.44
75745;BME280;74462;51.366;-0.222;2023-12-04T00:30:57;100057.33;;;8.07;80.60
75745;BME280;74462;51.366;-0.222;2023-12-04T00:32:00;100058.41;;;8.07;80.63
75745;BME280;74462;51.366;-0.222;2023-12-04T00:33:02;100057.39;;;8.02;80.59
75745;BME280;74462;51.366;-0.222;2023-12-04T00:34:05;100050.86;;;8.06;80.26
75745;BME280;74462;51.366;-0.222;2023-12-04T00:35:08;100052.71;;;8.03;80.41
75745;BME280;74462;51.366;-0.222;2023-12-04T00:36:11;100048.85;;;8.07;80.50
75745;BME280;74462;51.366;-0.222;2023-12-04T00:37:14;100048.90;;;7.99;80.42
75745;BME280;74462;51.366;-0.222;2023-12-04T00:38:16;100040.45;;;7.95;80.53
75745;BME280;74462;51.366;-0.222;2023-12-04T00:39:18;100040.61;;;7.99;80.39
75745;BME280;74462;51.366;-0.222;2023-12-04T00:40:21;100039.71;;;7.99;80.50
75745;BME280;74462;51.366;-0.222;2023-12-04T00:41:23;100032.80;;;7.98;80.28
75745;BME280;74462;51.366;-0.222;2023-12-04T00:42:26;100028.45;;;7.92;80.20
75745;BME280;74462;51.366;-0.222;2023-12-04T00:43:28;100027.54;;;7.95;80.35
75745;BME280;74462;51.366;-0.222;2023-12-04T00:44:30;100025.80;;;7.90;80.25
75745;BME280;74462;51.366;-0.222;2023-12-04T00:45:33;100027.63;;;7.91;80.50
75745;BME280;74462;51.366;-0.222;2023-12-04T00:46:35;100027.91;;;7.92;80.45
75745;BME280;74462;51.366;-0.222;2023-12-04T00:47:38;100027.14;;;7.87;80.07
75745;BME280;74462;51.366;-0.222;2023-12-04T00:48:40;100019.19;;;7.85;80.16
75745;BME280;74462;51.366;-0.222;2023-12-04T00:49:42;100021.05;;;7.88;80.09
75745;BME280;74462;51.366;-0.222;2023-12-04T00:50:45;100020.16;;;7.90;80.41
75745;BME280;74462;51.366;-0.222;2023-12-04T00:51:47;100019.72;;;7.87;80.47
75745;BME280;74462;51.366;-0.222;2023-12-04T00:52:50;100013.98;;;7.94;80.60
75745;BME280;74462;51.366;-0.222;2023-12-04T00:53:52;100012.92;;;7.92;80.27
75745;BME280;74462;51.366;-0.222;2023-12-04T00:54:55;100010.90;;;7.84;80.55
75745;BME280;74462;51.366;-0.222;2023-12-04T00:55:57;100010.84;;;7.85;80.61
75745;BME280;74462;51.366;-0.222;2023-12-04T00:57:00;100005.66;;;7.72;80.36
75745;BME280;74462;51.366;-0.222;2023-12-04T00:58:02;99997.33;;;7.68;80.35
75745;BME280;74462;51.366;-0.222;2023-12-04T00:59:05;99995.64;;;7.69;80.26
75745;BME280;74462;51.366;-0.222;2023-12-04T01:00:08;99987.83;;;7.74;80.48
75745;BME280;74462;51.366;-0.222;2023-12-04T01:01:11;99988.57;;;7.65;80.47
75745;BME280;74462;51.366;-0.222;2023-12-04T01:02:13;99984.00;;;7.61;81.16
75745;BME280;74462;51.366;-0.222;2023-12-04T01:03:16;99983.02;;;7.66;81.38
75745;BME280;74462;51.366;-0.222;2023-12-04T01:04:18;99979.09;;;7.71;81.20
75745;BME280;74462;51.366;-0.222;2023-12-04T01:05:21;99982.63;;;7.71;80.70
75745;BME280;74462;51.366;-0.222;2023-12-04T01:06:23;99975.61;;;7.66;80.96
75745;BME280;74462;51.366;-0.222;2023-12-04T01:07:26;99976.30;;;7.62;80.44
75745;BME280;74462;51.366;-0.222;2023-12-04T01:08:29;99973.35;;;7.54;80.80
75745;BME280;74462;51.366;-0.222;2023-12-04T01:09:31;99967.78;;;7.58;80.93
75745;BME280;74462;51.366;-0.222;2023-12-04T01:10:36;99965.73;;;7.63;80.86
75745;BME280;74462;51.366;-0.222;2023-12-04T01:11:38;99964.30;;;7.64;80.79
75745;BME280;74462;51.366;-0.222;2023-12-04T01:12:41;99961.77;;;7.64;80.35
75745;BME280;74462;51.366;-0.222;2023-12-04T01:13:43;99960.29;;;7.61;80.78
75745;BME280;74462;51.366;-0.222;2023-12-04T01:14:46;99958.16;;;7.59;80.65
75745;BME280;74462;51.366;-0.222;2023-12-04T01:15:48;99954.96;;;7.61;81.18
75745;BME280;74462;51.366;-0.222;2023-12-04T01:16:51;99945.92;;;7.61;80.95
75745;BME280;74462;51.366;-0.222;2023-12-04T01:17:53;99947.56;;;7.61;80.56
75745;BME280;74462;51.366;-0.222;2023-12-04T01:18:56;99943.84;;;7.68;80.67
75745;BME280;74462;51.366;-0.222;2023-12-04T01:19:59;99942.86;;;7.67;80.76
75745;BME280;74462;51.366;-0.222;2023-12-04T01:21:01;99937.50;;;7.70;80.69
75745;BME280;74462;51.366;-0.222;2023-12-04T01:22:04;99936.11;;;7.65;80.40
75745;BME280;74462;51.366;-0.222;2023-12-04T01:23:07;99930.73;;;7.63;80.49
75745;BME280;74462;51.366;-0.222;2023-12-04T01:24:09;99929.27;;;7.64;80.77
75745;BME280;74462;51.366;-0.222;2023-12-04T01:25:12;99929.70;;;7.67;80.98
75745;BME280;74462;51.366;-0.222;2023-12-04T01:26:14;99926.81;;;7.66;80.16
75745;BME280;74462;51.366;-0.222;2023-12-04T01:27:16;99922.54;;;7.60;80.45
75745;BME280;74462;51.366;-0.222;2023-12-04T01:28:19;99922.75;;;7.57;80.46
75745;BME280;74462;51.366;-0.222;2023-12-04T01:29:21;99919.75;;;7.55;80.45
75745;BME280;74462;51.366;-0.222;2023-12-04T01:30:24;99926.13;;;7.57;80.54
75745;BME280;74462;51.366;-0.222;2023-12-04T01:31:26;99917.25;;;7.55;80.72
75745;BME280;74462;51.366;-0.222;2023-12-04T01:32:29;99916.08;;;7.50;80.59
75745;BME280;74462;51.366;-0.222;2023-12-04T01:33:31;99911.47;;;7.57;80.73
75745;BME280;74462;51.366;-0.222;2023-12-04T01:34:33;99907.80;;;7.46;80.51
75745;BME280;74462;51.366;-0.222;2023-12-04T01:35:36;99906.05;;;7.54;80.77
75745;BME280;74462;51.366;-0.222;2023-12-04T01:36:41;99903.05;;;7.52;80.48
75745;BME280;74462;51.366;-0.222;2023-12-04T01:37:43;99902.13;;;7.55;80.23
75745;BME280;74462;51.366;-0.222;2023-12-04T01:38:46;99900.83;;;7.55;80.37
75745;BME280;74462;51.366;-0.222;2023-12-04T01:39:48;99896.64;;;7.57;80.38
75745;BME280;74462;51.366;-0.222;2023-12-04T01:40:50;99895.37;;;7.55;80.43
75745;BME280;74462;51.366;-0.222;2023-12-04T01:41:53;99897.48;;;7.51;80.42
75745;BME280;74462;51.366;-0.222;2023-12-04T01:42:55;99896.70;;;7.56;80.50
75745;BME280;74462;51.366;-0.222;2023-12-04T01:43:58;99892.25;;;7.57;80.60
75745;BME280;74462;51.366;-0.222;2023-12-04T01:45:00;99894.16;;;7.55;80.36
75745;BME280;74462;51.366;-0.222;2023-12-04T01:46:03;99889.05;;;7.48;80.60
75745;BME280;74462;51.366;-0.222;2023-12-04T01:47:06;99889.59;;;7.52;79.87
75745;BME280;74462;51.366;-0.222;2023-12-04T01:48:09;99888.81;;;7.49;79.88
75745;BME280;74462;51.366;-0.222;2023-12-04T01:49:12;99882.32;;;7.53;80.25
75745;BME280;74462;51.366;-0.222;2023-12-04T01:50:16;99882.36;;;7.41;79.95
75745;BME280;74462;51.366;-0.222;2023-12-04T01:51:20;99877.73;;;7.48;80.00
75745;BME280;74462;51.366;-0.222;2023-12-04T01:52:22;99877.68;;;7.49;80.10
75745;BME280;74462;51.366;-0.222;2023-12-04T01:53:25;99878.23;;;7.47;80.19
75745;BME280;74462;51.366;-0.222;2023-12-04T01:54:28;99874.85;;;7.47;80.01
75745;BME280;74462;51.366;-0.222;2023-12-04T01:55:30;99869.64;;;7.50;80.04
75745;BME280;74462;51.366;-0.222;2023-12-04T01:56:35;99868.55;;;7.55;80.02
75745;BME280;74462;51.366;-0.222;2023-12-04T01:57:37;99867.96;;;7.58;79.83
75745;BME280;74462;51.366;-0.222;2023-12-04T01:58:39;99864.58;;;7.58;80.14
75745;BME280;74462;51.366;-0.222;2023-12-04T01:59:42;99862.84;;;7.36;79.76
75745;BME280;74462;51.366;-0.222;2023-12-04T02:00:45;99860.63;;;7.35;79.92
75745;BME280;74462;51.366;-0.222;2023-12-04T02:01:47;99859.16;;;7.31;80.19
75745;BME280;74462;51.366;-0.222;2023-12-04T02:02:50;99857.38;;;7.42;80.42
75745;BME280;74462;51.366;-0.222;2023-12-04T02:03:53;99852.58;;;7.45;80.22
75745;BME280;74462;51.366;-0.222;2023-12-04T02:04:56;99849.05;;;7.40;80.01
75745;BME280;74462;51.366;-0.222;2023-12-04T02:06:00;99851.39;;;7.37;79.62
75745;BME280;74462;51.366;-0.222;2023-12-04T02:07:05;99851.46;;;7.30;79.81
75745;BME280;74462;51.366;-0.222;2023-12-04T02:08:07;99849.06;;;7.38;79.87
75745;BME280;74462;51.366;-0.222;2023-12-04T02:09:10;99842.90;;;7.43;80.23
75745;BME280;74462;51.366;-0.222;2023-12-04T02:10:14;99844.38;;;7.41;79.75
75745;BME280;74462;51.366;-0.222;2023-12-04T02:11:16;99846.23;;;7.27;79.54
75745;BME280;74462;51.366;-0.222;2023-12-04T02:12:19;99840.02;;;7.38;79.71
75745;BME280;74462;51.366;-0.222;2023-12-04T02:13:21;99838.29;;;7.38;80.10
75745;BME280;74462;51.366;-0.222;2023-12-04T02:14:24;99832.54;;;7.37;79.70
75745;BME280;74462;51.366;-0.222;2023-12-04T02:15:27;99834.86;;;7.32;79.83
75745;BME280;74462;51.366;-0.222;2023-12-04T02:16:31;99831.94;;;7.42;79.78
75745;BME280;74462;51.366;-0.222;2023-12-04T02:17:36;99833.29;;;7.36;79.96
75745;BME280;74462;51.366;-0.222;2023-12-04T02:18:38;99833.56;;;7.31;79.99
75745;BME280;74462;51.366;-0.222;2023-12-04T02:19:41;99827.18;;;7.25;79.97
75745;BME280;74462;51.366;-0.222;2023-12-04T02:20:43;99825.32;;;7.26;80.00
75745;BME280;74462;51.366;-0.222;2023-12-04T02:21:46;99826.80;;;7.31;79.75
75745;BME280;74462;51.366;-0.222;2023-12-04T02:22:48;99826.40;;;7.30;80.19
75745;BME280;74462;51.366;-0.222;2023-12-04T02:23:51;99821.39;;;7.31;79.75
75745;BME280;74462;51.366;-0.222;2023-12-04T02:24:54;99815.95;;;7.28;79.95
75745;BME280;74462;51.366;-0.222;2023-12-04T02:26:03;99817.77;;;7.25;79.90
75745;BME280;74462;51.366;-0.222;2023-12-04T02:27:12;99811.90;;;7.28;79.75
75745;BME280;74462;51.366;-0.222;2023-12-04T02:28:18;99807.32;;;7.32;79.82
75745;BME280;74462;51.366;-0.222;2023-12-04T02:29:26;99802.75;;;7.30;79.61
75745;BME280;74462;51.366;-0.222;2023-12-04T02:30:31;99808.82;;;7.29;79.76
75745;BME280;74462;51.366;-0.222;2023-12-04T02:31:35;99803.02;;;7.35;79.79
75745;BME280;74462;51.366;-0.222;2023-12-04T02:32:42;99800.13;;;7.34;79.80
75745;BME280;74462;51.366;-0.222;2023-12-04T02:33:47;99796.88;;;7.28;79.37
75745;BME280;74462;51.366;-0.222;2023-12-04T02:34:49;99797.22;;;7.26;79.82
75745;BME280;74462;51.366;-0.222;2023-12-04T02:35:52;99796.96;;;7.25;79.67
75745;BME280;74462;51.366;-0.222;2023-12-04T02:36:55;99795.31;;;7.19;79.56
75745;BME280;74462;51.366;-0.222;2023-12-04T02:37:59;99792.42;;;7.15;79.46
75745;BME280;74462;51.366;-0.222;2023-12-04T02:39:02;99789.36;;;7.07;80.08
75745;BME280;74462;51.366;-0.222;2023-12-04T02:40:07;99786.89;;;7.14;80.46
75745;BME280;74462;51.366;-0.222;2023-12-04T02:41:09;99784.83;;;7.16;80.21
75745;BME280;74462;51.366;-0.222;2023-12-04T02:42:13;99785.33;;;7.18;80.73
75745;BME280;74462;51.366;-0.222;2023-12-04T02:43:15;99783.35;;;7.21;80.69
75745;BME280;74462;51.366;-0.222;2023-12-04T02:44:18;99779.39;;;7.22;80.44
75745;BME280;74462;51.366;-0.222;2023-12-04T02:45:21;99780.38;;;7.16;80.14
75745;BME280;74462;51.366;-0.222;2023-12-04T02:46:23;99768.55;;;7.23;80.01
75745;BME280;74462;51.366;-0.222;2023-12-04T02:47:26;99771.02;;;7.21;80.22
75745;BME280;74462;51.366;-0.222;2023-12-04T02:48:28;99769.68;;;7.24;80.46
75745;BME280;74462;51.366;-0.222;2023-12-04T02:49:31;99767.13;;;7.27;80.52
75745;BME280;74462;51.366;-0.222;2023-12-04T02:50:33;99764.77;;;7.22;80.21
75745;BME280;74462;51.366;-0.222;2023-12-04T02:51:36;99767.63;;;7.15;80.61
75745;BME280;74462;51.366;-0.222;2023-12-04T02:52:38;99758.44;;;7.19;80.48
75745;BME280;74462;51.366;-0.222;2023-12-04T02:53:41;99762.20;;;7.16;80.58
75745;BME280;74462;51.366;-0.222;2023-12-04T02:54:43;99757.80;;;7.07;80.61
75745;BME280;74462;51.366;-0.222;2023-12-04T02:55:45;99759.02;;;7.19;81.01
75745;BME280;74462;51.366;-0.222;2023-12-04T02:56:48;99752.25;;;7.19;80.65
75745;BME280;74462;51.366;-0.222;2023-12-04T02:57:50;99746.12;;;7.12;80.58
75745;BME280;74462;51.366;-0.222;2023-12-04T02:58:53;99747.74;;;7.18;80.89
75745;BME280;74462;51.366;-0.222;2023-12-04T02:59:55;99736.43;;;7.25;80.51
75745;BME280;74462;51.366;-0.222;2023-12-04T03:00:58;99742.34;;;7.17;80.84
75745;BME280;74462;51.366;-0.222;2023-12-04T03:02:00;99734.23;;;7.19;80.43
75745;BME280;74462;51.366;-0.222;2023-12-04T03:03:03;99734.44;;;7.23;80.58
75745;BME280;74462;51.366;-0.222;2023-12-04T03:04:05;99725.86;;;7.24;80.55
75745;BME280;74462;51.366;-0.222;2023-12-04T03:05:08;99727.09;;;7.24;80.42
75745;BME280;74462;51.366;-0.222;2023-12-04T03:06:11;99725.27;;;7.23;80.62
75745;BME280;74462;51.366;-0.222;2023-12-04T03:07:13;99713.14;;;7.27;80.66
75745;BME280;74462;51.366;-0.222;2023-12-04T03:08:15;99714.59;;;7.24;80.83
75745;BME280;74462;51.366;-0.222;2023-12-04T03:09:18;99715.08;;;7.24;80.63
75745;BME280;74462;51.366;-0.222;2023-12-04T03:10:20;99712.09;;;7.24;80.66
75745;BME280;74462;51.366;-0.222;2023-12-04T03:11:23;99709.22;;;7.29;80.80
75745;BME280;74462;51.366;-0.222;2023-12-04T03:12:25;99702.97;;;7.24;80.52
75745;BME280;74462;51.366;-0.222;2023-12-04T03:13:27;99700.73;;;7.27;80.67
75745;BME280;74462;51.366;-0.222;2023-12-04T03:14:30;99702.44;;;7.24;80.63
75745;BME280;74462;51.366;-0.222;2023-12-04T03:15:32;99698.48;;;7.30;80.80
75745;BME280;74462;51.366;-0.222;2023-12-04T03:16:35;99693.15;;;7.33;80.77
75745;BME280;74462;51.366;-0.222;2023-12-04T03:17:37;99687.27;;;7.39;80.64
75745;BME280;74462;51.366;-0.222;2023-12-04T03:18:39;99686.16;;;7.39;80.32
75745;BME280;74462;51.366;-0.222;2023-12-04T03:19:42;99682.52;;;7.36;80.28
75745;BME280;74462;51.366;-0.222;2023-12-04T03:20:44;99685.40;;;7.33;80.62
75745;BME280;74462;51.366;-0.222;2023-12-04T03:21:47;99685.80;;;7.32;80.46
75745;BME280;74462;51.366;-0.222;2023-12-04T03:22:49;99680.88;;;7.34;80.26
75745;BME280;74462;51.366;-0.222;2023-12-04T03:23:52;99681.19;;;7.39;80.55
75745;BME280;74462;51.366;-0.222;2023-12-04T03:24:54;99679.08;;;7.39;80.58
75745;BME280;74462;51.366;-0.222;2023-12-04T03:25:56;99675.06;;;7.36;80.33
75745;BME280;74462;51.366;-0.222;2023-12-04T03:26:59;99674.89;;;7.43;80.32
75745;BME280;74462;51.366;-0.222;2023-12-04T03:28:01;99672.88;;;7.39;80.35
75745;BME280;74462;51.366;-0.222;2023-12-04T03:29:04;99671.92;;;7.38;80.25
75745;BME280;74462;51.366;-0.222;2023-12-04T03:30:08;99667.34;;;7.42;80.36
75745;BME280;74462;51.366;-0.222;2023-12-04T03:31:11;99666.66;;;7.36;80.26
75745;BME280;74462;51.366;-0.222;2023-12-04T03:32:13;99663.83;;;7.42;80.28
75745;BME280;74462;51.366;-0.222;2023-12-04T03:33:15;99660.97;;;7.43;80.85
75745;BME280;74462;51.366;-0.222;2023-12-04T03:34:18;99662.70;;;7.39;80.70
75745;BME280;74462;51.366;-0.222;2023-12-04T03:35:20;99664.69;;;7.36;80.53
75745;BME280;74462;51.366;-0.222;2023-12-04T03:36:23;99662.48;;;7.35;80.65
75745;BME280;74462;51.366;-0.222;2023-12-04T03:37:25;99662.25;;;7.37;80.33
75745;BME280;74462;51.366;-0.222;2023-12-04T03:38:28;99658.58;;;7.35;80.29
75745;BME280;74462;51.366;-0.222;2023-12-04T03:39:30;99659.89;;;7.45;80.43
75745;BME280;74462;51.366;-0.222;2023-12-04T03:40:32;99656.03;;;7.38;80.37
75745;BME280;74462;51.366;-0.222;2023-12-04T03:41:35;99655.42;;;7.43;80.56
75745;BME280;74462;51.366;-0.222;2023-12-04T03:42:37;99652.12;;;7.45;80.65
75745;BME280;74462;51.366;-0.222;2023-12-04T03:43:40;99649.40;;;7.44;80.19
75745;BME280;74462;51.366;-0.222;2023-12-04T03:44:42;99648.05;;;7.40;80.56
75745;BME280;74462;51.366;-0.222;2023-12-04T03:45:44;99645.83;;;7.38;80.55
75745;BME280;74462;51.366;-0.222;2023-12-04T03:46:51;99645.78;;;7.44;80.82
75745;BME280;74462;51.366;-0.222;2023-12-04T03:47:54;99643.83;;;7.40;80.10
75745;BME280;74462;51.366;-0.222;2023-12-04T03:48:56;99639.20;;;7.53;80.25
75745;BME280;74462;51.366;-0.222;2023-12-04T03:49:59;99645.31;;;7.50;80.50
75745;BME280;74462;51.366;-0.222;2023-12-04T03:51:01;99636.84;;;7.52;80.11
75745;BME280;74462;51.366;-0.222;2023-12-04T03:52:05;99638.91;;;7.42;80.13
75745;BME280;74462;51.366;-0.222;2023-12-04T03:53:07;99635.55;;;7.38;80.30
75745;BME280;74462;51.366;-0.222;2023-12-04T03:54:10;99635.58;;;7.46;80.52
75745;BME280;74462;51.366;-0.222;2023-12-04T03:55:13;99631.11;;;7.45;80.40
75745;BME280;74462;51.366;-0.222;2023-12-04T03:56:15;99627.21;;;7.36;80.85
75745;BME280;74462;51.366;-0.222;2023-12-04T03:57:18;99624.92;;;7.40;80.52
75745;BME280;74462;51.366;-0.222;2023-12-04T03:58:20;99624.85;;;7.42;80.85
75745;BME280;74462;51.366;-0.222;2023-12-04T03:59:23;99627.65;;;7.38;80.80
75745;BME280;74462;51.366;-0.222;2023-12-04T04:00:25;99619.11;;;7.43;80.91
75745;BME280;74462;51.366;-0.222;2023-12-04T04:01:28;99619.10;;;7.47;80.55
75745;BME280;74462;51.366;-0.222;2023-12-04T04:02:30;99615.16;;;7.35;80.46
75745;BME280;74462;51.366;-0.222;2023-12-04T04:03:33;99618.24;;;7.31;80.66
75745;BME280;74462;51.366;-0.222;2023-12-04T04:04:35;99616.10;;;7.32;81.04
75745;BME280;74462;51.366;-0.222;2023-12-04T04:05:38;99616.54;;;7.42;80.73
75745;BME280;74462;51.366;-0.222;2023-12-04T04:06:40;99621.05;;;7.47;80.74
75745;BME280;74462;51.366;-0.222;2023-12-04T04:07:43;99620.02;;;7.44;81.07
75745;BME280;74462;51.366;-0.222;2023-12-04T04:08:45;99623.96;;;7.35;81.19
75745;BME280;74462;51.366;-0.222;2023-12-04T04:09:47;99620.05;;;7.38;81.30
75745;BME280;74462;51.366;-0.222;2023-12-04T04:10:50;99621.77;;;7.34;81.37
75745;BME280;74462;51.366;-0.222;2023-12-04T04:11:52;99621.83;;;7.39;81.35
75745;BME280;74462;51.366;-0.222;2023-12-04T04:12:55;99623.52;;;7.38;81.50
75745;BME280;74462;51.366;-0.222;2023-12-04T04:13:57;99622.23;;;7.32;81.58
75745;BME280;74462;51.366;-0.222;2023-12-04T04:15:00;99617.45;;;7.29;81.39
75745;BME280;74462;51.366;-0.222;2023-12-04T04:16:03;99619.04;;;7.26;81.64
75745;BME280;74462;51.366;-0.222;2023-12-04T04:17:05;99617.20;;;7.36;81.74
75745;BME280;74462;51.366;-0.222;2023-12-04T04:18:08;99616.92;;;7.30;81.90
75745;BME280;74462;51.366;-0.222;2023-12-04T04:19:11;99613.86;;;7.17;81.99
75745;BME280;74462;51.366;-0.222;2023-12-04T04:20:13;99612.02;;;7.26;82.10
75745;BME280;74462;51.366;-0.222;2023-12-04T04:21:16;99613.86;;;7.29;82.10
75745;BME280;74462;51.366;-0.222;2023-12-04T04:22:18;99608.01;;;7.27;82.13
75745;BME280;74462;51.366;-0.222;2023-12-04T04:23:21;99610.45;;;7.25;82.04
75745;BME280;74462;51.366;-0.222;2023-12-04T04:24:23;99610.34;;;7.13;82.39
75745;BME280;74462;51.366;-0.222;2023-12-04T04:25:26;99606.52;;;7.20;82.73
75745;BME280;74462;51.366;-0.222;2023-12-04T04:26:28;99609.02;;;7.15;82.80
75745;BME280;74462;51.366;-0.222;2023-12-04T04:27:31;99609.98;;;7.17;82.83
75745;BME280;74462;51.366;-0.222;2023-12-04T04:28:33;99607.41;;;7.26;82.34
75745;BME280;74462;51.366;-0.222;2023-12-04T04:29:35;99610.66;;;7.19;82.09
75745;BME280;74462;51.366;-0.222;2023-12-04T04:30:38;99609.42;;;7.21;82.41
75745;BME280;74462;51.366;-0.222;2023-12-04T04:31:40;99610.59;;;7.26;82.60
75745;BME280;74462;51.366;-0.222;2023-12-04T04:32:43;99610.23;;;7.24;82.31
75745;BME280;74462;51.366;-0.222;2023-12-04T04:33:45;99614.11;;;7.18;82.45
75745;BME280;74462;51.366;-0.222;2023-12-04T04:34:48;99609.32;;;7.18;82.07
75745;BME280;74462;51.366;-0.222;2023-12-04T04:35:50;99610.77;;;7.14;82.16
75745;BME280;74462;51.366;-0.222;2023-12-04T04:36:52;99605.91;;;7.21;82.40
75745;BME280;74462;51.366;-0.222;2023-12-04T04:37:55;99605.06;;;7.20;82.50
75745;BME280;74462;51.366;-0.222;2023-12-04T04:38:57;99598.02;;;7.26;82.25
75745;BME280;74462;51.366;-0.222;2023-12-04T04:40:00;99598.66;;;7.25;82.34
75745;BME280;74462;51.366;-0.222;2023-12-04T04:41:03;99599.13;;;7.26;82.22
75745;BME280;74462;51.366;-0.222;2023-12-04T04:42:06;99592.12;;;7.34;82.42
75745;BME280;74462;51.366;-0.222;2023-12-04T04:43:09;99596.80;;;7.34;82.24
75745;BME280;74462;51.366;-0.222;2023-12-04T04:44:12;99593.13;;;7.30;81.91
75745;BME280;74462;51.366;-0.222;2023-12-04T04:45:14;99589.47;;;7.27;81.97
75745;BME280;74462;51.366;-0.222;2023-12-04T04:46:17;99589.81;;;7.27;82.16
75745;BME280;74462;51.366;-0.222;2023-12-04T04:47:19;99585.59;;;7.31;82.23
75745;BME280;74462;51.366;-0.222;2023-12-04T04:48:22;99588.83;;;7.35;81.90
75745;BME280;74462;51.366;-0.222;2023-12-04T04:49:24;99587.91;;;7.37;81.95
75745;BME280;74462;51.366;-0.222;2023-12-04T04:50:27;99588.49;;;7.32;81.91
75745;BME280;74462;51.366;-0.222;2023-12-04T04:51:29;99585.80;;;7.35;82.01
75745;BME280;74462;51.366;-0.222;2023-12-04T04:52:31;99587.05;;;7.37;81.80
75745;BME280;74462;51.366;-0.222;2023-12-04T04:53:34;99583.52;;;7.41;81.90
75745;BME280;74462;51.366;-0.222;2023-12-04T04:54:36;99581.77;;;7.41;81.76
75745;BME280;74462;51.366;-0.222;2023-12-04T04:55:39;99578.34;;;7.33;81.93
75745;BME280;74462;51.366;-0.222;2023-12-04T04:56:41;99578.77;;;7.37;81.60
75745;BME280;74462;51.366;-0.222;2023-12-04T04:57:44;99579.59;;;7.33;81.72
75745;BME280;74462;51.366;-0.222;2023-12-04T04:58:46;99578.39;;;7.33;81.90
75745;BME280;74462;51.366;-0.222;2023-12-04T04:59:49;99579.59;;;7.29;81.53
75745;BME280;74462;51.366;-0.222;2023-12-04T05:00:51;99577.71;;;7.32;81.85
75745;BME280;74462;51.366;-0.222;2023-12-04T05:01:53;99578.15;;;7.34;81.82
75745;BME280;74462;51.366;-0.222;2023-12-04T05:02:56;99577.80;;;7.38;81.83
75745;BME280;74462;51.366;-0.222;2023-12-04T05:03:58;99575.87;;;7.40;81.77
75745;BME280;74462;51.366;-0.222;2023-12-04T05:05:03;99577.13;;;7.33;81.64
75745;BME280;74462;51.366;-0.222;2023-12-04T05:06:07;99577.04;;;7.28;81.62
75745;BME280;74462;51.366;-0.222;2023-12-04T05:07:08;99573.66;;;7.22;81.82
75745;BME280;74462;51.366;-0.222;2023-12-04T05:08:11;99572.60;;;7.28;81.85
75745;BME280;74462;51.366;-0.222;2023-12-04T05:09:13;99571.71;;;7.28;82.07
75745;BME280;74462;51.366;-0.222;2023-12-04T05:10:16;99571.36;;;7.33;81.83
75745;BME280;74462;51.366;-0.222;2023-12-04T05:11:18;99569.65;;;7.32;82.13
75745;BME280;74462;51.366;-0.222;2023-12-04T05:12:21;99569.14;;;7.31;81.95
75745;BME280;74462;51.366;-0.222;2023-12-04T05:13:23;99568.02;;;7.30;81.97
75745;BME280;74462;51.366;-0.222;2023-12-04T05:14:26;99558.83;;;7.35;81.95
75745;BME280;74462;51.366;-0.222;2023-12-04T05:15:29;99562.00;;;7.34;81.77
75745;BME280;74462;51.366;-0.222;2023-12-04T05:16:31;99561.67;;;7.37;81.78
75745;BME280;74462;51.366;-0.222;2023-12-04T05:17:34;99561.88;;;7.28;81.77
75745;BME280;74462;51.366;-0.222;2023-12-04T05:18:37;99558.80;;;7.23;81.83
75745;BME280;74462;51.366;-0.222;2023-12-04T05:19:40;99559.10;;;7.08;82.24
75745;BME280;74462;51.366;-0.222;2023-12-04T05:20:42;99558.52;;;7.13;82.33
75745;BME280;74462;51.366;-0.222;2023-12-04T05:21:45;99554.42;;;7.16;82.10
75745;BME280;74462;51.366;-0.222;2023-12-04T05:22:47;99553.36;;;7.16;82.45
75745;BME280;74462;51.366;-0.222;2023-12-04T05:23:50;99548.88;;;7.17;82.47
75745;BME280;74462;51.366;-0.222;2023-12-04T05:24:53;99547.21;;;7.24;82.49
75745;BME280;74462;51.366;-0.222;2023-12-04T05:25:55;99546.91;;;7.25;82.47
75745;BME280;74462;51.366;-0.222;2023-12-04T05:26:57;99545.70;;;7.31;82.31
75745;BME280;74462;51.366;-0.222;2023-12-04T05:28:00;99547.89;;;7.35;82.18
75745;BME280;74462;51.366;-0.222;2023-12-04T05:29:02;99545.41;;;7.37;82.27
75745;BME280;74462;51.366;-0.222;2023-12-04T05:30:07;99548.04;;;7.35;81.83
75745;BME280;74462;51.366;-0.222;2023-12-04T05:31:09;99546.56;;;7.34;82.00